イースター島 の空港の天気 - METARとTAF

マタベリ国際空港 ( SCIP / IPC ) - チリ イースター島
飛行場実況気象(Metar)
観測時間10/22 09:00 EAST (10/22 14:00 UTC)
風向・風速西 4m/s
視程10km以上
天気現象
全天の4割程度の雲 雲底高度 910m
気温20℃
湿度78%
気圧1021hPa
METARSCIP 221400Z 28008KT 9999 SCT030 20/16 Q1021 NOSIG
過去の天気等 Google飛行場航空写真 Wunderground天気予報

過去48時間のMETAR

飛行場予報(TAF)
発表時間: 10/22 05:50 EAST (10/22 10:50 UTC)
予報対象時間: 22日7時 EAST ~ 23日7時 EAST
風向・風速西北西 5m/s
視程10km以上
少しの雲 雲底高度 460m
全天の4割程度の雲 雲底高度 910m
22日10時 EAST ~ 22日15時 EAST に一時的に
視程8000m
天気現象弱いしゅう雨
全天の4割程度の雲 雲底高度 300m
全天の8割程度の雲 雲底高度 760m
22日20時 EAST ~ 22日22時 EAST に徐々に
風向・風速西南西 3m/s
22日23時 EAST ~ 23日3時 EAST に一時的に
風向・風速不定 1m/s
視程7000m
天気現象弱いしゅう雨
全天の4割程度の雲 雲底高度 240m
全天の8割程度の雲 雲底高度 610m
TAF SCIP 221050Z 2212/2312 29010KT 9999 FEW015 SCT030 TX23/2219Z TN15/2309Z
TEMPO 2215/2220 8000 -SHRA SCT010 BKN025
BECMG 2301/2303 24005KT
TEMPO 2304/2308 VRB02KT 7000 -SHRA SCT008 BKN020